Agios Panteleimon — SX7669 — position and weather

sailwx.info

Track history (hours):
 
Tides and Currents Weather Stations Pressure Air Temp Water Temp Dewpoint Dewpoint Depression Visibility Wind Speed Wind Dir Waves Ship Positions

Agios Panteleimon

Last reported at 2017-Sep-21 15:52 UTC. Time now 2017-Sep-23 02:23 UTC.
Position N 40°46' E 024°34'.

Length 58 m; draft 2.3 m.

Type: Ship. MMSI: 237033700.

Date/timePositionNaut miles runAvg speedWind from/ knotsBaromVisibWave heightAir tempDewpointWater temp
2017-Sep-21 15:52N 40°46' E 024°34'4 9.8
2017-Sep-21 15:30N 40°49' E 024°31'5 9.2
2017-Sep-21 15:00N 40°53' E 024°28'4 8.1
2017-Sep-21 14:31N 40°56' E 024°25'3 6.6
2017-Sep-21 14:00N 40°53' E 024°26'510.1
2017-Sep-21 13:30N 40°49' E 024°31'5 9.6
2017-Sep-21 13:00N 40°46' E 024°35'0 0.0
2017-Sep-21 12:31N 40°46' E 024°35'4 8.3
2017-Sep-21 12:01N 40°49' E 024°31'5 9.4
2017-Sep-21 11:30N 40°53' E 024°28'4 8.0
2017-Sep-21 11:01N 40°56' E 024°25'1 1.6
2017-Sep-21 10:30N 40°55' E 024°25'510.3
2017-Sep-21 10:00N 40°51' E 024°28'5 9.9
2017-Sep-21 09:30N 40°47' E 024°33'2 4.2
2017-Sep-21 09:01N 40°46' E 024°35'4 7.7
2017-Sep-21 08:30N 40°48' E 024°31'5 9.5
2017-Sep-21 08:00N 40°52' E 024°28'4 8.5
2017-Sep-21 07:30N 40°56' E 024°25'0 0.0
2017-Sep-21 07:00N 40°56' E 024°25'0 0.0
2017-Sep-21 06:30N 40°56' E 024°25'0 0.0
2017-Sep-21 06:00N 40°56' E 024°25'3 5.2
2017-Sep-21 05:30N 40°53' E 024°25'5 9.5
2017-Sep-21 05:00N 40°49' E 024°28'5 9.9
2017-Sep-21 04:31N 40°47' E 024°33'1 2.5
2017-Sep-21 04:01N 40°46' E 024°35'0 0.0
2017-Sep-21 03:30N 40°46' E 024°35'0 0.0
2017-Sep-21 03:00N 40°46' E 024°35'1 0.1
2017-Sep-20 15:46N 40°46' E 024°34'310.1
2017-Sep-20 15:30N 40°48' E 024°32'510.3
2017-Sep-20 15:00N 40°52' E 024°28'2 1.8
2017-Sep-20 14:00N 40°54' E 024°26'510.5
2017-Sep-20 13:30N 40°50' E 024°31'5 9.9
2017-Sep-20 13:00N 40°46' E 024°35'0 0.0
2017-Sep-20 12:30N 40°46' E 024°35'4 7.1
2017-Sep-20 12:00N 40°49' E 024°32'610.3
2017-Sep-20 11:28N 40°53' E 024°27'4 8.1
2017-Sep-20 11:00N 40°56' E 024°25'0 1.0
2017-Sep-20 10:30N 40°56' E 024°24'510.6
2017-Sep-20 10:00N 40°52' E 024°28'510.7
2017-Sep-20 09:30N 40°47' E 024°33'2 4.4
2017-Sep-20 09:00N 40°46' E 024°35'4 7.2
2017-Sep-20 08:30N 40°49' E 024°32'510.1
2017-Sep-20 08:00N 40°52' E 024°28'4 8.4
2017-Sep-20 07:30N 40°56' E 024°25'0 0.0
2017-Sep-20 07:00N 40°56' E 024°25'0 0.0
2017-Sep-20 06:30N 40°56' E 024°25'0 0.0
2017-Sep-20 06:00N 40°56' E 024°25'1 2.8
2017-Sep-20 05:30N 40°55' E 024°25'510.1
2017-Sep-20 05:00N 40°51' E 024°29'510.3
2017-Sep-20 04:30N 40°47' E 024°34'1 2.7
2017-Sep-20 04:00N 40°46' E 024°35'0 0.0
2017-Sep-19 15:52N 40°46' E 024°35'3 9.3
2017-Sep-19 15:30N 40°48' E 024°32'510.7
2017-Sep-19 15:00N 40°52' E 024°28'4 8.4
2017-Sep-19 14:30N 40°56' E 024°25'3 6.3
2017-Sep-19 14:00N 40°53' E 024°27'510.3
2017-Sep-19 13:30N 40°49' E 024°31'5 9.2
2017-Sep-19 13:00N 40°46' E 024°35'0 0.0
2017-Sep-19 12:30N 40°46' E 024°35'3 6.6
2017-Sep-19 12:00N 40°48' E 024°32'510.5
2017-Sep-19 11:30N 40°52' E 024°28'4 8.7
2017-Sep-19 11:00N 40°56' E 024°25'1 1.1
2017-Sep-19 10:30N 40°56' E 024°24'510.6
2017-Sep-19 10:00N 40°51' E 024°29'510.3
2017-Sep-19 09:30N 40°47' E 024°33'2 4.5
2017-Sep-19 09:00N 40°46' E 024°35'3 6.8
2017-Sep-19 08:30N 40°48' E 024°32'510.4
2017-Sep-19 08:00N 40°52' E 024°28'4 8.4
2017-Sep-19 07:30N 40°56' E 024°25'0 0.0
2017-Sep-19 07:00N 40°56' E 024°25'0 0.0
2017-Sep-19 06:30N 40°56' E 024°25'0 0.0
2017-Sep-19 06:00N 40°56' E 024°25'1 2.9
2017-Sep-19 05:30N 40°55' E 024°25'510.2
2017-Sep-19 05:00N 40°51' E 024°30'510.2
2017-Sep-19 04:30N 40°47' E 024°34'1 2.4
2017-Sep-19 04:00N 40°46' E 024°35'0 0.0
2017-Sep-19 03:30N 40°46' E 024°35'0 0.0
2017-Sep-18 15:52N 40°46' E 024°35'410.1
2017-Sep-18 15:30N 40°49' E 024°32'510.8
2017-Sep-18 15:00N 40°53' E 024°27'4 7.6
2017-Sep-18 14:31N 40°56' E 024°25'3 6.3
2017-Sep-18 14:00N 40°53' E 024°27'510.1
2017-Sep-18 13:30N 40°49' E 024°31'5 9.3
2017-Sep-18 13:00N 40°46' E 024°35'0 0.0
2017-Sep-18 12:30N 40°46' E 024°35'3 6.6
2017-Sep-18 12:01N 40°48' E 024°32'510.6
2017-Sep-18 11:30N 40°52' E 024°28'4 8.6
2017-Sep-18 11:00N 40°56' E 024°25'1 1.2
2017-Sep-18 10:30N 40°55' E 024°24'510.4
2017-Sep-18 10:00N 40°51' E 024°29'510.3
2017-Sep-18 09:30N 40°47' E 024°33'2 4.4
2017-Sep-18 09:01N 40°46' E 024°35'3 6.8
2017-Sep-18 08:30N 40°49' E 024°32'510.5
2017-Sep-18 08:00N 40°52' E 024°28'4 8.4
2017-Sep-18 07:30N 40°56' E 024°25'0 0.0
2017-Sep-18 07:00N 40°56' E 024°25'0 0.0
2017-Sep-18 06:30N 40°56' E 024°25'0 0.0
2017-Sep-18 06:01N 40°56' E 024°25'1 2.5
2017-Sep-18 05:30N 40°55' E 024°25'510.4
2017-Sep-18 05:00N 40°51' E 024°29'510.4
2017-Sep-18 04:30N 40°47' E 024°34'1 2.6
2017-Sep-18 04:00N 40°46' E 024°35'0 0.0
2017-Sep-18 03:31N 40°46' E 024°35'0 0.0
2017-Sep-18 03:00N 40°46' E 024°35'0 0.0
2017-Sep-17 17:52N 40°46' E 024°35'4 9.7
2017-Sep-17 17:30N 40°49' E 024°32'510.8
2017-Sep-17 17:00N 40°53' E 024°28'4 7.8
2017-Sep-17 16:30N 40°56' E 024°25'3 6.5
2017-Sep-17 16:00N 40°53' E 024°27'5 9.9
2017-Sep-17 15:30N 40°49' E 024°31'5 9.3
2017-Sep-17 15:00N 40°46' E 024°35'0 0.0
2017-Sep-17 14:30N 40°46' E 024°35'3 6.4
2017-Sep-17 14:00N 40°48' E 024°33'510.6
2017-Sep-17 13:30N 40°52' E 024°28'4 8.8
2017-Sep-17 13:00N 40°56' E 024°25'0 0.1
2017-Sep-17 12:30N 40°56' E 024°25'3 6.2
2017-Sep-17 12:00N 40°53' E 024°27'510.3
2017-Sep-17 11:30N 40°49' E 024°31'5 9.3
2017-Sep-17 11:00N 40°46' E 024°35'0 0.0
2017-Sep-17 10:30N 40°46' E 024°35'4 7.1
2017-Sep-17 10:00N 40°49' E 024°32'510.4
2017-Sep-17 09:30N 40°53' E 024°28'4 8.3
2017-Sep-17 09:00N 40°56' E 024°25'0 0.0
2017-Sep-17 08:30N 40°56' E 024°25'3 6.4
2017-Sep-17 08:00N 40°53' E 024°26'510.2
2017-Sep-17 07:30N 40°49' E 024°31'5 9.2
2017-Sep-17 07:00N 40°46' E 024°35'0 0.0
2017-Sep-17 06:30N 40°46' E 024°35'0 0.0
2017-Sep-17 06:00N 40°46' E 024°35'0 0.0
2017-Sep-16 15:51N 40°46' E 024°35'310.0
2017-Sep-16 15:31N 40°48' E 024°32'510.7
2017-Sep-16 15:00N 40°53' E 024°28'4 8.2
2017-Sep-16 14:30N 40°56' E 024°25'3 6.1
2017-Sep-16 14:01N 40°53' E 024°27'510.2
2017-Sep-16 13:31N 40°49' E 024°31'5 9.5
2017-Sep-16 13:00N 40°46' E 024°35'0 0.0
2017-Sep-16 12:30N 40°46' E 024°35'4 7.4
2017-Sep-16 12:01N 40°49' E 024°32'510.1
2017-Sep-16 11:31N 40°53' E 024°28'4 8.2
2017-Sep-16 11:01N 40°56' E 024°25'1 1.3
2017-Sep-16 10:31N 40°55' E 024°24'510.5
2017-Sep-16 10:00N 40°51' E 024°29'510.4
2017-Sep-16 09:30N 40°47' E 024°33'2 4.2
2017-Sep-16 09:00N 40°46' E 024°35'4 7.9
2017-Sep-16 08:30N 40°49' E 024°32'5 9.7
2017-Sep-16 08:00N 40°53' E 024°28'4 8.1
2017-Sep-16 07:31N 40°56' E 024°25'0 0.0
2017-Sep-16 07:01N 40°56' E 024°25'0 0.0
2017-Sep-16 06:31N 40°56' E 024°25'0 0.0
2017-Sep-16 06:00N 40°56' E 024°25'1 2.8
2017-Sep-16 05:31N 40°55' E 024°25'510.4
2017-Sep-16 05:00N 40°51' E 024°29'510.3
2017-Sep-16 04:30N 40°47' E 024°34'1 2.6
2017-Sep-16 04:00N 40°46' E 024°35'0 0.0
2017-Sep-16 03:30N 40°46' E 024°35'0 0.0
2017-Sep-15 15:55N 40°46' E 024°35'410.0
2017-Sep-15 15:30N 40°49' E 024°32'510.4
2017-Sep-15 15:01N 40°53' E 024°27'3 7.0
2017-Sep-15 14:30N 40°56' E 024°25'4 7.7
2017-Sep-15 14:01N 40°53' E 024°27'510.5
2017-Sep-15 13:30N 40°49' E 024°32'4 7.6
2017-Sep-15 13:00N 40°46' E 024°35'0 0.0
2017-Sep-15 12:30N 40°46' E 024°35'4 7.0
2017-Sep-15 12:00N 40°49' E 024°32'510.2
2017-Sep-15 11:31N 40°52' E 024°28'4 8.6
2017-Sep-15 11:01N 40°56' E 024°25'1 1.2
2017-Sep-15 10:30N 40°56' E 024°24'510.7
2017-Sep-15 10:01N 40°51' E 024°28'510.6
2017-Sep-15 09:30N 40°47' E 024°33'2 4.3
2017-Sep-15 09:01N 40°46' E 024°35'4 7.6
2017-Sep-15 08:30N 40°49' E 024°32'510.2
2017-Sep-15 08:00N 40°53' E 024°28'4 7.9
2017-Sep-15 07:30N 40°56' E 024°25'0 0.0
2017-Sep-15 07:01N 40°56' E 024°25'0 0.0
2017-Sep-15 06:30N 40°56' E 024°25'0 0.0
2017-Sep-15 06:00N 40°56' E 024°25'2 3.0
2017-Sep-15 05:30N 40°55' E 024°25'510.4
2017-Sep-15 05:00N 40°50' E 024°29'510.4
2017-Sep-15 04:31N 40°47' E 024°34'1 2.4
2017-Sep-15 04:01N 40°46' E 024°35'0 0.0
2017-Sep-15 03:30N 40°46' E 024°35'0 0.0
2017-Sep-14 15:51N 40°46' E 024°35'310.0
2017-Sep-14 15:30N 40°48' E 024°32'510.5
2017-Sep-14 15:00N 40°53' E 024°28'4 8.4
2017-Sep-14 14:30N 40°56' E 024°25'3 5.6
2017-Sep-14 14:00N 40°54' E 024°26'510.5
2017-Sep-14 13:30N 40°49' E 024°31'5 9.7
2017-Sep-14 13:00N 40°46' E 024°35'0 0.0
2017-Sep-14 12:30N 40°46' E 024°35'4 7.3
2017-Sep-14 12:01N 40°48' E 024°32'510.2
2017-Sep-14 11:31N 40°52' E 024°28'4 8.3
2017-Sep-14 11:00N 40°56' E 024°25'1 1.3
2017-Sep-14 10:30N 40°55' E 024°24'510.6
2017-Sep-14 10:00N 40°51' E 024°28'510.4
2017-Sep-14 09:30N 40°47' E 024°33'2 4.3
2017-Sep-14 09:00N 40°46' E 024°35'4 7.5
2017-Sep-14 08:30N 40°49' E 024°32'510.1
2017-Sep-14 08:00N 40°53' E 024°28'4 8.1
2017-Sep-14 07:30N 40°56' E 024°25'0 0.0
2017-Sep-14 07:00N 40°56' E 024°25'0 0.0
2017-Sep-14 06:31N 40°56' E 024°25'0 0.0
2017-Sep-14 06:00N 40°56' E 024°25'1 2.8
2017-Sep-14 05:30N 40°55' E 024°25'510.4
2017-Sep-14 05:00N 40°51' E 024°29'510.4
2017-Sep-14 04:30N 40°47' E 024°34'1 2.5
2017-Sep-14 04:00N 40°46' E 024°35'0 0.0
2017-Sep-14 03:30N 40°46' E 024°35'0 0.0
2017-Sep-13 15:51N 40°46' E 024°35'3 9.6
2017-Sep-13 15:30N 40°48' E 024°32'510.7
2017-Sep-13 15:00N 40°52' E 024°28'4 8.5
2017-Sep-13 14:30N 40°56' E 024°25'3 5.7
2017-Sep-13 14:00N 40°53' E 024°26'510.4
2017-Sep-13 13:30N 40°49' E 024°31'5 9.7
2017-Sep-13 13:00N 40°46' E 024°35'0 0.0
2017-Sep-13 12:30N 40°46' E 024°35'4 7.1
2017-Sep-13 12:00N 40°48' E 024°32'510.3
2017-Sep-13 11:30N 40°52' E 024°27'4 8.4
2017-Sep-13 11:00N 40°56' E 024°25'1 1.2
2017-Sep-13 10:30N 40°55' E 024°24'510.5
2017-Sep-13 10:00N 40°51' E 024°29'510.3
2017-Sep-13 09:30N 40°47' E 024°33'2 4.5
2017-Sep-13 09:00N 40°46' E 024°35'3 6.9
2017-Sep-13 08:30N 40°48' E 024°32'510.4
2017-Sep-13 08:00N 40°52' E 024°28'4 8.4
2017-Sep-13 07:30N 40°56' E 024°25'0 0.0
2017-Sep-13 07:00N 40°56' E 024°25'0 0.0
2017-Sep-13 06:30N 40°56' E 024°25'0 0.0
2017-Sep-13 06:00N 40°56' E 024°25'1 2.8
2017-Sep-13 05:30N 40°55' E 024°25'510.4
2017-Sep-13 05:00N 40°51' E 024°29'510.4
2017-Sep-13 04:30N 40°46' E 024°34'1 2.3
2017-Sep-13 04:00N 40°46' E 024°35'0 0.0
2017-Sep-13 03:30N 40°46' E 024°35'0 0.0
2017-Sep-12 15:56N 40°46' E 024°35'4 9.2
2017-Sep-12 15:30N 40°49' E 024°32'510.1
2017-Sep-12 15:00N 40°53' E 024°28'4 7.8
2017-Sep-12 14:30N 40°56' E 024°25'4 7.3
2017-Sep-12 14:00N 40°52' E 024°26'510.1
2017-Sep-12 13:30N 40°49' E 024°31'4 9.0
2017-Sep-12 13:00N 40°46' E 024°35'0 0.0
2017-Sep-12 12:30N 40°46' E 024°35'4 8.4
2017-Sep-12 12:00N 40°49' E 024°33'5 9.9
2017-Sep-12 11:30N 40°53' E 024°28'4 7.8
2017-Sep-12 11:00N 40°56' E 024°25'1 2.4
2017-Sep-12 10:30N 40°55' E 024°24'5 9.9
2017-Sep-12 10:00N 40°51' E 024°29'510.0
2017-Sep-12 09:30N 40°47' E 024°33'2 4.4
2017-Sep-12 09:00N 40°46' E 024°35'4 7.5
2017-Sep-12 08:30N 40°49' E 024°32'510.1
2017-Sep-12 08:00N 40°53' E 024°28'4 8.2
2017-Sep-12 07:30N 40°56' E 024°25'0 0.0
2017-Sep-12 07:00N 40°56' E 024°25'0 0.0
2017-Sep-12 06:30N 40°56' E 024°25'0 0.0
2017-Sep-12 06:00N 40°56' E 024°25'1 2.7
2017-Sep-12 05:30N 40°55' E 024°25'510.2
2017-Sep-12 05:00N 40°51' E 024°30'510.3
2017-Sep-12 04:30N 40°47' E 024°34'1 2.8
2017-Sep-12 04:00N 40°46' E 024°35'0 0.0
2017-Sep-12 03:30N 40°46' E 024°35'  
Track history (hours):
 
Tides and Currents Weather Stations Pressure Air Temp Water Temp Dewpoint Dewpoint Depression Visibility Wind Speed Wind Dir Waves Ship Positions

Agios Panteleimon

Last reported at 2017-Sep-21 15:52 UTC. Time now 2017-Sep-23 02:23 UTC.
Position N 40°46' E 024°34'.

Length 58 m; draft 2.3 m.

Type: Ship. MMSI: 237033700.

Date/timePositionNaut miles runAvg speedWind from/ knotsBaromVisibWave heightAir tempDewpointWater temp
2017-Sep-21 15:52N 40°46' E 024°34'4 9.8
2017-Sep-21 15:30N 40°49' E 024°31'5 9.2
2017-Sep-21 15:00N 40°53' E 024°28'4 8.1
2017-Sep-21 14:31N 40°56' E 024°25'3 6.6
2017-Sep-21 14:00N 40°53' E 024°26'510.1
2017-Sep-21 13:30N 40°49' E 024°31'5 9.6
2017-Sep-21 13:00N 40°46' E 024°35'0 0.0
2017-Sep-21 12:31N 40°46' E 024°35'4 8.3
2017-Sep-21 12:01N 40°49' E 024°31'5 9.4
2017-Sep-21 11:30N 40°53' E 024°28'4 8.0
2017-Sep-21 11:01N 40°56' E 024°25'1 1.6
2017-Sep-21 10:30N 40°55' E 024°25'510.3
2017-Sep-21 10:00N 40°51' E 024°28'5 9.9
2017-Sep-21 09:30N 40°47' E 024°33'2 4.2
2017-Sep-21 09:01N 40°46' E 024°35'4 7.7
2017-Sep-21 08:30N 40°48' E 024°31'5 9.5
2017-Sep-21 08:00N 40°52' E 024°28'4 8.5
2017-Sep-21 07:30N 40°56' E 024°25'0 0.0
2017-Sep-21 07:00N 40°56' E 024°25'0 0.0
2017-Sep-21 06:30N 40°56' E 024°25'0 0.0
2017-Sep-21 06:00N 40°56' E 024°25'3 5.2
2017-Sep-21 05:30N 40°53' E 024°25'5 9.5
2017-Sep-21 05:00N 40°49' E 024°28'5 9.9
2017-Sep-21 04:31N 40°47' E 024°33'1 2.5
2017-Sep-21 04:01N 40°46' E 024°35'0 0.0
2017-Sep-21 03:30N 40°46' E 024°35'0 0.0
2017-Sep-21 03:00N 40°46' E 024°35'1 0.1
2017-Sep-20 15:46N 40°46' E 024°34'310.1
2017-Sep-20 15:30N 40°48' E 024°32'510.3
2017-Sep-20 15:00N 40°52' E 024°28'2 1.8
2017-Sep-20 14:00N 40°54' E 024°26'510.5
2017-Sep-20 13:30N 40°50' E 024°31'5 9.9
2017-Sep-20 13:00N 40°46' E 024°35'0 0.0
2017-Sep-20 12:30N 40°46' E 024°35'4 7.1
2017-Sep-20 12:00N 40°49' E 024°32'610.3
2017-Sep-20 11:28N 40°53' E 024°27'4 8.1
2017-Sep-20 11:00N 40°56' E 024°25'0 1.0
2017-Sep-20 10:30N 40°56' E 024°24'510.6
2017-Sep-20 10:00N 40°52' E 024°28'510.7
2017-Sep-20 09:30N 40°47' E 024°33'2 4.4
2017-Sep-20 09:00N 40°46' E 024°35'4 7.2
2017-Sep-20 08:30N 40°49' E 024°32'510.1
2017-Sep-20 08:00N 40°52' E 024°28'4 8.4
2017-Sep-20 07:30N 40°56' E 024°25'0 0.0
2017-Sep-20 07:00N 40°56' E 024°25'0 0.0
2017-Sep-20 06:30N 40°56' E 024°25'0 0.0
2017-Sep-20 06:00N 40°56' E 024°25'1 2.8
2017-Sep-20 05:30N 40°55' E 024°25'510.1
2017-Sep-20 05:00N 40°51' E 024°29'510.3
2017-Sep-20 04:30N 40°47' E 024°34'1 2.7
2017-Sep-20 04:00N 40°46' E 024°35'0 0.0
2017-Sep-19 15:52N 40°46' E 024°35'3 9.3
2017-Sep-19 15:30N 40°48' E 024°32'510.7
2017-Sep-19 15:00N 40°52' E 024°28'4 8.4
2017-Sep-19 14:30N 40°56' E 024°25'3 6.3
2017-Sep-19 14:00N 40°53' E 024°27'510.3
2017-Sep-19 13:30N 40°49' E 024°31'5 9.2
2017-Sep-19 13:00N 40°46' E 024°35'0 0.0
2017-Sep-19 12:30N 40°46' E 024°35'3 6.6
2017-Sep-19 12:00N 40°48' E 024°32'510.5
2017-Sep-19 11:30N 40°52' E 024°28'4 8.7
2017-Sep-19 11:00N 40°56' E 024°25'1 1.1
2017-Sep-19 10:30N 40°56' E 024°24'510.6
2017-Sep-19 10:00N 40°51' E 024°29'510.3
2017-Sep-19 09:30N 40°47' E 024°33'2 4.5
2017-Sep-19 09:00N 40°46' E 024°35'3 6.8
2017-Sep-19 08:30N 40°48' E 024°32'510.4
2017-Sep-19 08:00N 40°52' E 024°28'4 8.4
2017-Sep-19 07:30N 40°56' E 024°25'0 0.0
2017-Sep-19 07:00N 40°56' E 024°25'0 0.0
2017-Sep-19 06:30N 40°56' E 024°25'0 0.0
2017-Sep-19 06:00N 40°56' E 024°25'1 2.9
2017-Sep-19 05:30N 40°55' E 024°25'510.2
2017-Sep-19 05:00N 40°51' E 024°30'510.2
2017-Sep-19 04:30N 40°47' E 024°34'1 2.4
2017-Sep-19 04:00N 40°46' E 024°35'0 0.0
2017-Sep-19 03:30N 40°46' E 024°35'0 0.0
2017-Sep-18 15:52N 40°46' E 024°35'410.1
2017-Sep-18 15:30N 40°49' E 024°32'510.8
2017-Sep-18 15:00N 40°53' E 024°27'4 7.6
2017-Sep-18 14:31N 40°56' E 024°25'3 6.3
2017-Sep-18 14:00N 40°53' E 024°27'510.1
2017-Sep-18 13:30N 40°49' E 024°31'5 9.3
2017-Sep-18 13:00N 40°46' E 024°35'0 0.0
2017-Sep-18 12:30N 40°46' E 024°35'3 6.6
2017-Sep-18 12:01N 40°48' E 024°32'510.6
2017-Sep-18 11:30N 40°52' E 024°28'4 8.6
2017-Sep-18 11:00N 40°56' E 024°25'1 1.2
2017-Sep-18 10:30N 40°55' E 024°24'510.4
2017-Sep-18 10:00N 40°51' E 024°29'510.3
2017-Sep-18 09:30N 40°47' E 024°33'2 4.4
2017-Sep-18 09:01N 40°46' E 024°35'3 6.8
2017-Sep-18 08:30N 40°49' E 024°32'510.5
2017-Sep-18 08:00N 40°52' E 024°28'4 8.4
2017-Sep-18 07:30N 40°56' E 024°25'0 0.0
2017-Sep-18 07:00N 40°56' E 024°25'0 0.0
2017-Sep-18 06:30N 40°56' E 024°25'0 0.0
2017-Sep-18 06:01N 40°56' E 024°25'1 2.5
2017-Sep-18 05:30N 40°55' E 024°25'510.4
2017-Sep-18 05:00N 40°51' E 024°29'510.4
2017-Sep-18 04:30N 40°47' E 024°34'1 2.6
2017-Sep-18 04:00N 40°46' E 024°35'0 0.0
2017-Sep-18 03:31N 40°46' E 024°35'0 0.0
2017-Sep-18 03:00N 40°46' E 024°35'0 0.0
2017-Sep-17 17:52N 40°46' E 024°35'4 9.7
2017-Sep-17 17:30N 40°49' E 024°32'510.8
2017-Sep-17 17:00N 40°53' E 024°28'4 7.8
2017-Sep-17 16:30N 40°56' E 024°25'3 6.5
2017-Sep-17 16:00N 40°53' E 024°27'5 9.9
2017-Sep-17 15:30N 40°49' E 024°31'5 9.3
2017-Sep-17 15:00N 40°46' E 024°35'0 0.0
2017-Sep-17 14:30N 40°46' E 024°35'3 6.4
2017-Sep-17 14:00N 40°48' E 024°33'510.6
2017-Sep-17 13:30N 40°52' E 024°28'4 8.8
2017-Sep-17 13:00N 40°56' E 024°25'0 0.1
2017-Sep-17 12:30N 40°56' E 024°25'3 6.2
2017-Sep-17 12:00N 40°53' E 024°27'510.3
2017-Sep-17 11:30N 40°49' E 024°31'5 9.3
2017-Sep-17 11:00N 40°46' E 024°35'0 0.0
2017-Sep-17 10:30N 40°46' E 024°35'4 7.1
2017-Sep-17 10:00N 40°49' E 024°32'510.4
2017-Sep-17 09:30N 40°53' E 024°28'4 8.3
2017-Sep-17 09:00N 40°56' E 024°25'0 0.0
2017-Sep-17 08:30N 40°56' E 024°25'3 6.4
2017-Sep-17 08:00N 40°53' E 024°26'510.2
2017-Sep-17 07:30N 40°49' E 024°31'5 9.2
2017-Sep-17 07:00N 40°46' E 024°35'0 0.0
2017-Sep-17 06:30N 40°46' E 024°35'0 0.0
2017-Sep-17 06:00N 40°46' E 024°35'0 0.0
2017-Sep-16 15:51N 40°46' E 024°35'310.0
2017-Sep-16 15:31N 40°48' E 024°32'510.7
2017-Sep-16 15:00N 40°53' E 024°28'4 8.2
2017-Sep-16 14:30N 40°56' E 024°25'3 6.1
2017-Sep-16 14:01N 40°53' E 024°27'510.2
2017-Sep-16 13:31N 40°49' E 024°31'5 9.5
2017-Sep-16 13:00N 40°46' E 024°35'0 0.0
2017-Sep-16 12:30N 40°46' E 024°35'4 7.4
2017-Sep-16 12:01N 40°49' E 024°32'510.1
2017-Sep-16 11:31N 40°53' E 024°28'4 8.2
2017-Sep-16 11:01N 40°56' E 024°25'1 1.3
2017-Sep-16 10:31N 40°55' E 024°24'510.5
2017-Sep-16 10:00N 40°51' E 024°29'510.4
2017-Sep-16 09:30N 40°47' E 024°33'2 4.2
2017-Sep-16 09:00N 40°46' E 024°35'4 7.9
2017-Sep-16 08:30N 40°49' E 024°32'5 9.7
2017-Sep-16 08:00N 40°53' E 024°28'4 8.1
2017-Sep-16 07:31N 40°56' E 024°25'0 0.0
2017-Sep-16 07:01N 40°56' E 024°25'0 0.0
2017-Sep-16 06:31N 40°56' E 024°25'0 0.0
2017-Sep-16 06:00N 40°56' E 024°25'1 2.8
2017-Sep-16 05:31N 40°55' E 024°25'510.4
2017-Sep-16 05:00N 40°51' E 024°29'510.3
2017-Sep-16 04:30N 40°47' E 024°34'1 2.6
2017-Sep-16 04:00N 40°46' E 024°35'0 0.0
2017-Sep-16 03:30N 40°46' E 024°35'0 0.0
2017-Sep-15 15:55N 40°46' E 024°35'410.0
2017-Sep-15 15:30N 40°49' E 024°32'510.4
2017-Sep-15 15:01N 40°53' E 024°27'3 7.0
2017-Sep-15 14:30N 40°56' E 024°25'4 7.7
2017-Sep-15 14:01N 40°53' E 024°27'510.5
2017-Sep-15 13:30N 40°49' E 024°32'4 7.6
2017-Sep-15 13:00N 40°46' E 024°35'0 0.0
2017-Sep-15 12:30N 40°46' E 024°35'4 7.0
2017-Sep-15 12:00N 40°49' E 024°32'510.2
2017-Sep-15 11:31N 40°52' E 024°28'4 8.6
2017-Sep-15 11:01N 40°56' E 024°25'1 1.2
2017-Sep-15 10:30N 40°56' E 024°24'510.7
2017-Sep-15 10:01N 40°51' E 024°28'510.6
2017-Sep-15 09:30N 40°47' E 024°33'2 4.3
2017-Sep-15 09:01N 40°46' E 024°35'4 7.6
2017-Sep-15 08:30N 40°49' E 024°32'510.2
2017-Sep-15 08:00N 40°53' E 024°28'4 7.9
2017-Sep-15 07:30N 40°56' E 024°25'0 0.0
2017-Sep-15 07:01N 40°56' E 024°25'0 0.0
2017-Sep-15 06:30N 40°56' E 024°25'0 0.0
2017-Sep-15 06:00N 40°56' E 024°25'2 3.0
2017-Sep-15 05:30N 40°55' E 024°25'510.4
2017-Sep-15 05:00N 40°50' E 024°29'510.4
2017-Sep-15 04:31N 40°47' E 024°34'1 2.4
2017-Sep-15 04:01N 40°46' E 024°35'0 0.0
2017-Sep-15 03:30N 40°46' E 024°35'0 0.0
2017-Sep-14 15:51N 40°46' E 024°35'310.0
2017-Sep-14 15:30N 40°48' E 024°32'510.5
2017-Sep-14 15:00N 40°53' E 024°28'4 8.4
2017-Sep-14 14:30N 40°56' E 024°25'3 5.6
2017-Sep-14 14:00N 40°54' E 024°26'510.5
2017-Sep-14 13:30N 40°49' E 024°31'5 9.7
2017-Sep-14 13:00N 40°46' E 024°35'0 0.0
2017-Sep-14 12:30N 40°46' E 024°35'4 7.3
2017-Sep-14 12:01N 40°48' E 024°32'510.2
2017-Sep-14 11:31N 40°52' E 024°28'4 8.3
2017-Sep-14 11:00N 40°56' E 024°25'1 1.3
2017-Sep-14 10:30N 40°55' E 024°24'510.6
2017-Sep-14 10:00N 40°51' E 024°28'510.4
2017-Sep-14 09:30N 40°47' E 024°33'2 4.3
2017-Sep-14 09:00N 40°46' E 024°35'4 7.5
2017-Sep-14 08:30N 40°49' E 024°32'510.1
2017-Sep-14 08:00N 40°53' E 024°28'4 8.1
2017-Sep-14 07:30N 40°56' E 024°25'0 0.0
2017-Sep-14 07:00N 40°56' E 024°25'0 0.0
2017-Sep-14 06:31N 40°56' E 024°25'0 0.0
2017-Sep-14 06:00N 40°56' E 024°25'1 2.8
2017-Sep-14 05:30N 40°55' E 024°25'510.4
2017-Sep-14 05:00N 40°51' E 024°29'510.4
2017-Sep-14 04:30N 40°47' E 024°34'1 2.5
2017-Sep-14 04:00N 40°46' E 024°35'0 0.0
2017-Sep-14 03:30N 40°46' E 024°35'0 0.0
2017-Sep-13 15:51N 40°46' E 024°35'3 9.6
2017-Sep-13 15:30N 40°48' E 024°32'510.7
2017-Sep-13 15:00N 40°52' E 024°28'4 8.5
2017-Sep-13 14:30N 40°56' E 024°25'3 5.7
2017-Sep-13 14:00N 40°53' E 024°26'510.4
2017-Sep-13 13:30N 40°49' E 024°31'5 9.7
2017-Sep-13 13:00N 40°46' E 024°35'0 0.0
2017-Sep-13 12:30N 40°46' E 024°35'4 7.1
2017-Sep-13 12:00N 40°48' E 024°32'510.3
2017-Sep-13 11:30N 40°52' E 024°27'4 8.4
2017-Sep-13 11:00N 40°56' E 024°25'1 1.2
2017-Sep-13 10:30N 40°55' E 024°24'510.5
2017-Sep-13 10:00N 40°51' E 024°29'510.3
2017-Sep-13 09:30N 40°47' E 024°33'2 4.5
2017-Sep-13 09:00N 40°46' E 024°35'3 6.9
2017-Sep-13 08:30N 40°48' E 024°32'510.4
2017-Sep-13 08:00N 40°52' E 024°28'4 8.4
2017-Sep-13 07:30N 40°56' E 024°25'0 0.0
2017-Sep-13 07:00N 40°56' E 024°25'0 0.0
2017-Sep-13 06:30N 40°56' E 024°25'0 0.0
2017-Sep-13 06:00N 40°56' E 024°25'1 2.8
2017-Sep-13 05:30N 40°55' E 024°25'510.4
2017-Sep-13 05:00N 40°51' E 024°29'510.4
2017-Sep-13 04:30N 40°46' E 024°34'1 2.3
2017-Sep-13 04:00N 40°46' E 024°35'0 0.0
2017-Sep-13 03:30N 40°46' E 024°35'0 0.0
2017-Sep-12 15:56N 40°46' E 024°35'4 9.2
2017-Sep-12 15:30N 40°49' E 024°32'510.1
2017-Sep-12 15:00N 40°53' E 024°28'4 7.8
2017-Sep-12 14:30N 40°56' E 024°25'4 7.3
2017-Sep-12 14:00N 40°52' E 024°26'510.1
2017-Sep-12 13:30N 40°49' E 024°31'4 9.0
2017-Sep-12 13:00N 40°46' E 024°35'0 0.0
2017-Sep-12 12:30N 40°46' E 024°35'4 8.4
2017-Sep-12 12:00N 40°49' E 024°33'5 9.9
2017-Sep-12 11:30N 40°53' E 024°28'4 7.8
2017-Sep-12 11:00N 40°56' E 024°25'1 2.4
2017-Sep-12 10:30N 40°55' E 024°24'5 9.9
2017-Sep-12 10:00N 40°51' E 024°29'510.0
2017-Sep-12 09:30N 40°47' E 024°33'2 4.4
2017-Sep-12 09:00N 40°46' E 024°35'4 7.5
2017-Sep-12 08:30N 40°49' E 024°32'510.1
2017-Sep-12 08:00N 40°53' E 024°28'4 8.2
2017-Sep-12 07:30N 40°56' E 024°25'0 0.0
2017-Sep-12 07:00N 40°56' E 024°25'0 0.0
2017-Sep-12 06:30N 40°56' E 024°25'0 0.0
2017-Sep-12 06:00N 40°56' E 024°25'1 2.7
2017-Sep-12 05:30N 40°55' E 024°25'510.2
2017-Sep-12 05:00N 40°51' E 024°30'510.3
2017-Sep-12 04:30N 40°47' E 024°34'1 2.8
2017-Sep-12 04:00N 40°46' E 024°35'0 0.0
2017-Sep-12 03:30N 40°46' E 024°35'  

Dump ship's entire track history